sensor_id;sensor_type;location;lat;lon;timestamp;P1;durP1;ratioP1;P2;durP2;ratioP2
40637;SDS011;26336;44.696;10.622;2022-09-17T00:00:07;8.02;;;1.90;;
40637;SDS011;26336;44.696;10.622;2022-09-17T00:03:12;4.07;;;1.88;;
40637;SDS011;26336;44.696;10.622;2022-09-17T00:06:16;6.70;;;2.35;;
40637;SDS011;26336;44.696;10.622;2022-09-17T00:09:20;11.23;;;2.85;;
40637;SDS011;26336;44.696;10.622;2022-09-17T00:12:25;9.23;;;2.10;;
40637;SDS011;26336;44.696;10.622;2022-09-17T00:15:29;6.90;;;1.77;;
40637;SDS011;26336;44.696;10.622;2022-09-17T00:18:33;7.50;;;1.40;;
40637;SDS011;26336;44.696;10.622;2022-09-17T00:21:39;7.28;;;1.60;;
40637;SDS011;26336;44.696;10.622;2022-09-17T00:24:44;4.53;;;1.65;;
40637;SDS011;26336;44.696;10.622;2022-09-17T00:27:48;6.20;;;1.92;;
40637;SDS011;26336;44.696;10.622;2022-09-17T00:30:53;6.43;;;1.60;;
40637;SDS011;26336;44.696;10.622;2022-09-17T00:33:58;13.77;;;2.53;;
40637;SDS011;26336;44.696;10.622;2022-09-17T00:37:02;10.23;;;2.10;;
40637;SDS011;26336;44.696;10.622;2022-09-17T00:40:06;10.85;;;1.88;;
40637;SDS011;26336;44.696;10.622;2022-09-17T00:43:11;13.23;;;2.15;;
40637;SDS011;26336;44.696;10.622;2022-09-17T00:50:38;9.88;;;1.45;;
40637;SDS011;26336;44.696;10.622;2022-09-17T00:53:34;8.93;;;2.03;;
40637;SDS011;26336;44.696;10.622;2022-09-17T00:56:38;6.45;;;1.50;;
40637;SDS011;26336;44.696;10.622;2022-09-17T00:59:44;7.57;;;1.30;;
40637;SDS011;26336;44.696;10.622;2022-09-17T01:02:48;5.95;;;1.63;;
40637;SDS011;26336;44.696;10.622;2022-09-17T01:05:58;2.80;;;1.02;;
40637;SDS011;26336;44.696;10.622;2022-09-17T01:22:07;8.55;;;1.70;;
40637;SDS011;26336;44.696;10.622;2022-09-17T01:25:26;3.67;;;1.20;;
40637;SDS011;26336;44.696;10.622;2022-09-17T01:29:10;4.70;;;1.05;;
40637;SDS011;26336;44.696;10.622;2022-09-17T01:32:36;7.10;;;1.45;;
40637;SDS011;26336;44.696;10.622;2022-09-17T01:35:53;2.15;;;0.90;;
40637;SDS011;26336;44.696;10.622;2022-09-17T01:42:34;1.50;;;0.80;;
40637;SDS011;26336;44.696;10.622;2022-09-17T01:45:50;5.13;;;1.10;;
40637;SDS011;26336;44.696;10.622;2022-09-17T01:48:58;4.55;;;1.08;;
40637;SDS011;26336;44.696;10.622;2022-09-17T01:52:06;7.45;;;0.95;;
40637;SDS011;26336;44.696;10.622;2022-09-17T01:55:13;4.45;;;0.90;;
40637;SDS011;26336;44.696;10.622;2022-09-17T01:58:23;5.90;;;0.90;;
40637;SDS011;26336;44.696;10.622;2022-09-17T02:01:30;5.53;;;1.25;;
40637;SDS011;26336;44.696;10.622;2022-09-17T02:04:42;10.88;;;2.78;;
40637;SDS011;26336;44.696;10.622;2022-09-17T02:07:57;5.80;;;1.10;;
40637;SDS011;26336;44.696;10.622;2022-09-17T02:11:11;6.35;;;1.48;;
40637;SDS011;26336;44.696;10.622;2022-09-17T02:14:20;3.35;;;0.98;;
40637;SDS011;26336;44.696;10.622;2022-09-17T02:17:36;6.20;;;1.10;;
40637;SDS011;26336;44.696;10.622;2022-09-17T02:20:49;5.22;;;1.15;;
40637;SDS011;26336;44.696;10.622;2022-09-17T02:27:28;5.00;;;1.30;;
40637;SDS011;26336;44.696;10.622;2022-09-17T02:30:48;6.40;;;1.13;;
40637;SDS011;26336;44.696;10.622;2022-09-17T02:33:54;4.03;;;1.13;;
40637;SDS011;26336;44.696;10.622;2022-09-17T02:37:04;8.18;;;1.17;;
40637;SDS011;26336;44.696;10.622;2022-09-17T02:40:09;5.43;;;1.38;;
40637;SDS011;26336;44.696;10.622;2022-09-17T02:43:22;5.65;;;1.40;;
40637;SDS011;26336;44.696;10.622;2022-09-17T03:03:11;2.67;;;1.17;;
40637;SDS011;26336;44.696;10.622;2022-09-17T03:06:22;5.25;;;1.95;;
40637;SDS011;26336;44.696;10.622;2022-09-17T03:09:26;3.30;;;1.10;;
40637;SDS011;26336;44.696;10.622;2022-09-17T03:12:29;6.38;;;1.20;;
40637;SDS011;26336;44.696;10.622;2022-09-17T03:15:34;6.75;;;1.40;;
40637;SDS011;26336;44.696;10.622;2022-09-17T03:18:40;4.05;;;1.13;;
40637;SDS011;26336;44.696;10.622;2022-09-17T03:21:45;8.98;;;1.48;;
40637;SDS011;26336;44.696;10.622;2022-09-17T03:24:49;4.22;;;0.82;;
40637;SDS011;26336;44.696;10.622;2022-09-17T03:27:52;6.32;;;0.93;;
40637;SDS011;26336;44.696;10.622;2022-09-17T03:30:57;7.95;;;0.95;;
40637;SDS011;26336;44.696;10.622;2022-09-17T03:34:01;4.30;;;0.88;;
40637;SDS011;26336;44.696;10.622;2022-09-17T03:37:05;2.85;;;0.90;;
40637;SDS011;26336;44.696;10.622;2022-09-17T03:40:09;4.35;;;0.70;;
40637;SDS011;26336;44.696;10.622;2022-09-17T03:43:13;5.47;;;1.10;;
40637;SDS011;26336;44.696;10.622;2022-09-17T03:46:17;9.40;;;1.33;;
40637;SDS011;26336;44.696;10.622;2022-09-17T03:49:22;4.40;;;1.48;;
40637;SDS011;26336;44.696;10.622;2022-09-17T03:52:26;3.47;;;0.98;;
40637;SDS011;26336;44.696;10.622;2022-09-17T03:55:30;8.57;;;1.00;;
40637;SDS011;26336;44.696;10.622;2022-09-17T03:58:34;4.15;;;0.70;;
40637;SDS011;26336;44.696;10.622;2022-09-17T04:01:38;5.95;;;1.42;;
40637;SDS011;26336;44.696;10.622;2022-09-17T04:04:42;2.30;;;0.75;;
40637;SDS011;26336;44.696;10.622;2022-09-17T04:07:46;3.33;;;0.77;;
40637;SDS011;26336;44.696;10.622;2022-09-17T04:10:50;2.35;;;0.75;;
40637;SDS011;26336;44.696;10.622;2022-09-17T04:13:54;5.50;;;1.00;;
40637;SDS011;26336;44.696;10.622;2022-09-17T04:16:58;5.22;;;1.02;;
40637;SDS011;26336;44.696;10.622;2022-09-17T04:20:03;4.35;;;0.85;;
40637;SDS011;26336;44.696;10.622;2022-09-17T04:23:10;3.95;;;1.10;;
40637;SDS011;26336;44.696;10.622;2022-09-17T04:26:14;4.80;;;0.95;;
40637;SDS011;26336;44.696;10.622;2022-09-17T04:29:18;4.60;;;0.98;;
40637;SDS011;26336;44.696;10.622;2022-09-17T04:32:22;7.07;;;1.20;;
40637;SDS011;26336;44.696;10.622;2022-09-17T04:35:26;5.57;;;1.13;;
40637;SDS011;26336;44.696;10.622;2022-09-17T04:38:31;7.82;;;1.45;;
40637;SDS011;26336;44.696;10.622;2022-09-17T04:41:35;4.90;;;1.30;;
40637;SDS011;26336;44.696;10.622;2022-09-17T04:44:39;8.82;;;1.80;;
40637;SDS011;26336;44.696;10.622;2022-09-17T04:47:43;7.30;;;1.17;;
40637;SDS011;26336;44.696;10.622;2022-09-17T04:50:47;5.53;;;0.85;;
40637;SDS011;26336;44.696;10.622;2022-09-17T04:53:51;5.00;;;1.20;;
40637;SDS011;26336;44.696;10.622;2022-09-17T04:56:55;6.85;;;1.70;;
40637;SDS011;26336;44.696;10.622;2022-09-17T04:59:59;6.13;;;1.25;;
40637;SDS011;26336;44.696;10.622;2022-09-17T05:03:03;2.28;;;0.95;;
40637;SDS011;26336;44.696;10.622;2022-09-17T05:06:07;1.42;;;0.57;;
40637;SDS011;26336;44.696;10.622;2022-09-17T05:09:11;1.70;;;0.80;;
40637;SDS011;26336;44.696;10.622;2022-09-17T05:12:14;3.53;;;0.82;;
40637;SDS011;26336;44.696;10.622;2022-09-17T05:15:19;2.75;;;0.75;;
40637;SDS011;26336;44.696;10.622;2022-09-17T05:18:27;2.17;;;0.77;;
40637;SDS011;26336;44.696;10.622;2022-09-17T05:21:31;4.43;;;0.70;;
40637;SDS011;26336;44.696;10.622;2022-09-17T05:24:35;2.45;;;0.80;;
40637;SDS011;26336;44.696;10.622;2022-09-17T05:27:41;6.03;;;1.05;;
40637;SDS011;26336;44.696;10.622;2022-09-17T05:30:48;1.27;;;0.98;;
40637;SDS011;26336;44.696;10.622;2022-09-17T05:33:52;1.98;;;0.90;;
40637;SDS011;26336;44.696;10.622;2022-09-17T05:36:56;1.85;;;0.90;;
40637;SDS011;26336;44.696;10.622;2022-09-17T05:40:00;2.63;;;0.90;;
40637;SDS011;26336;44.696;10.622;2022-09-17T05:43:06;3.53;;;1.25;;
40637;SDS011;26336;44.696;10.622;2022-09-17T05:46:10;1.90;;;0.98;;
40637;SDS011;26336;44.696;10.622;2022-09-17T05:49:14;2.05;;;0.98;;
40637;SDS011;26336;44.696;10.622;2022-09-17T05:52:18;3.47;;;1.08;;
40637;SDS011;26336;44.696;10.622;2022-09-17T05:55:22;3.42;;;1.08;;
40637;SDS011;26336;44.696;10.622;2022-09-17T05:58:26;2.90;;;0.90;;
40637;SDS011;26336;44.696;10.622;2022-09-17T06:01:31;1.80;;;0.73;;
40637;SDS011;26336;44.696;10.622;2022-09-17T06:04:35;2.63;;;0.77;;
40637;SDS011;26336;44.696;10.622;2022-09-17T06:07:39;1.38;;;0.75;;
40637;SDS011;26336;44.696;10.622;2022-09-17T06:10:43;1.13;;;0.60;;
40637;SDS011;26336;44.696;10.622;2022-09-17T06:13:47;1.77;;;0.50;;
40637;SDS011;26336;44.696;10.622;2022-09-17T06:16:51;0.75;;;0.60;;
40637;SDS011;26336;44.696;10.622;2022-09-17T06:19:55;1.92;;;0.80;;
40637;SDS011;26336;44.696;10.622;2022-09-17T06:22:59;0.90;;;0.60;;
40637;SDS011;26336;44.696;10.622;2022-09-17T06:26:04;2.08;;;0.60;;
40637;SDS011;26336;44.696;10.622;2022-09-17T06:29:08;2.92;;;0.50;;
40637;SDS011;26336;44.696;10.622;2022-09-17T06:32:12;0.95;;;0.60;;
40637;SDS011;26336;44.696;10.622;2022-09-17T06:35:19;1.83;;;0.70;;
40637;SDS011;26336;44.696;10.622;2022-09-17T06:38:23;1.73;;;1.05;;
40637;SDS011;26336;44.696;10.622;2022-09-17T06:41:29;0.73;;;0.43;;
40637;SDS011;26336;44.696;10.622;2022-09-17T06:44:33;1.63;;;0.75;;
40637;SDS011;26336;44.696;10.622;2022-09-17T06:47:37;0.95;;;0.40;;
40637;SDS011;26336;44.696;10.622;2022-09-17T06:50:41;1.48;;;0.30;;
40637;SDS011;26336;44.696;10.622;2022-09-17T06:53:45;0.40;;;0.40;;
40637;SDS011;26336;44.696;10.622;2022-09-17T06:56:49;0.52;;;0.47;;
40637;SDS011;26336;44.696;10.622;2022-09-17T06:59:53;0.50;;;0.43;;
40637;SDS011;26336;44.696;10.622;2022-09-17T07:02:57;2.13;;;0.70;;
40637;SDS011;26336;44.696;10.622;2022-09-17T07:06:03;0.38;;;0.38;;
40637;SDS011;26336;44.696;10.622;2022-09-17T07:09:11;0.60;;;0.50;;
40637;SDS011;26336;44.696;10.622;2022-09-17T07:12:15;0.55;;;0.40;;
40637;SDS011;26336;44.696;10.622;2022-09-17T07:15:20;0.77;;;0.50;;
40637;SDS011;26336;44.696;10.622;2022-09-17T07:18:24;2.80;;;0.90;;
40637;SDS011;26336;44.696;10.622;2022-09-17T07:21:30;0.98;;;0.40;;
40637;SDS011;26336;44.696;10.622;2022-09-17T07:24:34;1.55;;;0.68;;
40637;SDS011;26336;44.696;10.622;2022-09-17T07:27:38;1.48;;;0.50;;
40637;SDS011;26336;44.696;10.622;2022-09-17T07:30:42;1.25;;;0.60;;
40637;SDS011;26336;44.696;10.622;2022-09-17T07:33:45;2.55;;;0.85;;
40637;SDS011;26336;44.696;10.622;2022-09-17T07:36:52;2.05;;;0.70;;
40637;SDS011;26336;44.696;10.622;2022-09-17T07:39:56;0.80;;;0.60;;
40637;SDS011;26336;44.696;10.622;2022-09-17T07:43:00;1.48;;;0.60;;
40637;SDS011;26336;44.696;10.622;2022-09-17T07:46:05;1.63;;;0.47;;
40637;SDS011;26336;44.696;10.622;2022-09-17T07:49:10;1.38;;;0.50;;
40637;SDS011;26336;44.696;10.622;2022-09-17T07:52:17;1.17;;;0.60;;
40637;SDS011;26336;44.696;10.622;2022-09-17T07:55:22;1.80;;;0.70;;
40637;SDS011;26336;44.696;10.622;2022-09-17T07:58:30;3.33;;;0.57;;
40637;SDS011;26336;44.696;10.622;2022-09-17T08:01:38;1.42;;;0.70;;
40637;SDS011;26336;44.696;10.622;2022-09-17T08:04:42;0.60;;;0.55;;
40637;SDS011;26336;44.696;10.622;2022-09-17T08:07:50;3.58;;;0.85;;
40637;SDS011;26336;44.696;10.622;2022-09-17T08:10:57;0.98;;;0.70;;
40637;SDS011;26336;44.696;10.622;2022-09-17T08:14:02;1.75;;;0.43;;
40637;SDS011;26336;44.696;10.622;2022-09-17T08:17:06;1.52;;;0.60;;
40637;SDS011;26336;44.696;10.622;2022-09-17T08:20:11;1.55;;;0.60;;
40637;SDS011;26336;44.696;10.622;2022-09-17T08:23:16;1.40;;;0.50;;
40637;SDS011;26336;44.696;10.622;2022-09-17T08:26:21;1.67;;;0.60;;
40637;SDS011;26336;44.696;10.622;2022-09-17T08:29:25;0.85;;;0.40;;
40637;SDS011;26336;44.696;10.622;2022-09-17T08:32:29;1.20;;;0.63;;
40637;SDS011;26336;44.696;10.622;2022-09-17T08:35:33;3.50;;;1.15;;
40637;SDS011;26336;44.696;10.622;2022-09-17T08:38:38;1.65;;;0.57;;
40637;SDS011;26336;44.696;10.622;2022-09-17T08:41:48;4.57;;;0.77;;
40637;SDS011;26336;44.696;10.622;2022-09-17T08:45:09;2.33;;;0.40;;
40637;SDS011;26336;44.696;10.622;2022-09-17T08:48:19;2.90;;;0.70;;
40637;SDS011;26336;44.696;10.622;2022-09-17T08:51:46;0.85;;;0.40;;
40637;SDS011;26336;44.696;10.622;2022-09-17T08:58:27;1.27;;;0.35;;
40637;SDS011;26336;44.696;10.622;2022-09-17T09:05:09;1.23;;;0.40;;
40637;SDS011;26336;44.696;10.622;2022-09-17T09:08:36;0.90;;;0.47;;
40637;SDS011;26336;44.696;10.622;2022-09-17T09:11:48;0.55;;;0.40;;
40637;SDS011;26336;44.696;10.622;2022-09-17T09:15:16;0.77;;;0.30;;
40637;SDS011;26336;44.696;10.622;2022-09-17T09:18:37;2.47;;;0.50;;
40637;SDS011;26336;44.696;10.622;2022-09-17T09:21:47;1.30;;;0.50;;
40637;SDS011;26336;44.696;10.622;2022-09-17T09:28:32;0.20;;;0.20;;
40637;SDS011;26336;44.696;10.622;2022-09-17T09:34:41;0.40;;;0.40;;
40637;SDS011;26336;44.696;10.622;2022-09-17T09:37:50;1.08;;;0.60;;
40637;SDS011;26336;44.696;10.622;2022-09-17T09:40:59;1.20;;;0.50;;
40637;SDS011;26336;44.696;10.622;2022-09-17T09:44:18;2.30;;;0.70;;
40637;SDS011;26336;44.696;10.622;2022-09-17T09:48:09;1.13;;;0.40;;
40637;SDS011;26336;44.696;10.622;2022-09-17T09:51:20;1.48;;;0.60;;
40637;SDS011;26336;44.696;10.622;2022-09-17T09:57:47;0.95;;;0.47;;
40637;SDS011;26336;44.696;10.622;2022-09-17T10:00:54;1.85;;;0.60;;
40637;SDS011;26336;44.696;10.622;2022-09-17T10:03:58;1.30;;;0.47;;
40637;SDS011;26336;44.696;10.622;2022-09-17T10:10:10;1.75;;;0.60;;
40637;SDS011;26336;44.696;10.622;2022-09-17T10:13:14;1.90;;;0.65;;
40637;SDS011;26336;44.696;10.622;2022-09-17T10:19:26;2.75;;;0.80;;
40637;SDS011;26336;44.696;10.622;2022-09-17T10:22:34;0.45;;;0.43;;
40637;SDS011;26336;44.696;10.622;2022-09-17T10:25:43;1.05;;;0.50;;
40637;SDS011;26336;44.696;10.622;2022-09-17T10:28:48;1.13;;;0.50;;
40637;SDS011;26336;44.696;10.622;2022-09-17T10:31:56;1.55;;;0.40;;
40637;SDS011;26336;44.696;10.622;2022-09-17T10:35:03;1.50;;;0.55;;
40637;SDS011;26336;44.696;10.622;2022-09-17T10:38:33;1.95;;;0.43;;
40637;SDS011;26336;44.696;10.622;2022-09-17T10:41:38;1.13;;;0.32;;
40637;SDS011;26336;44.696;10.622;2022-09-17T10:44:57;1.00;;;0.60;;
40637;SDS011;26336;44.696;10.622;2022-09-17T10:48:11;1.58;;;0.50;;
40637;SDS011;26336;44.696;10.622;2022-09-17T10:51:19;1.60;;;0.70;;
40637;SDS011;26336;44.696;10.622;2022-09-17T10:54:32;0.95;;;0.50;;
40637;SDS011;26336;44.696;10.622;2022-09-17T11:01:36;1.88;;;1.13;;
40637;SDS011;26336;44.696;10.622;2022-09-17T11:08:04;1.15;;;0.60;;
40637;SDS011;26336;44.696;10.622;2022-09-17T11:11:17;1.70;;;0.63;;
40637;SDS011;26336;44.696;10.622;2022-09-17T11:14:57;2.53;;;0.70;;
40637;SDS011;26336;44.696;10.622;2022-09-17T11:18:34;2.15;;;0.68;;
40637;SDS011;26336;44.696;10.622;2022-09-17T11:29:07;0.70;;;0.50;;
40637;SDS011;26336;44.696;10.622;2022-09-17T11:35:44;0.40;;;0.38;;
40637;SDS011;26336;44.696;10.622;2022-09-17T11:38:51;0.30;;;0.30;;
40637;SDS011;26336;44.696;10.622;2022-09-17T11:41:59;1.08;;;0.50;;
40637;SDS011;26336;44.696;10.622;2022-09-17T11:48:42;2.75;;;0.30;;
40637;SDS011;26336;44.696;10.622;2022-09-17T11:51:55;0.60;;;0.22;;
40637;SDS011;26336;44.696;10.622;2022-09-17T11:55:21;0.60;;;0.30;;
40637;SDS011;26336;44.696;10.622;2022-09-17T12:03:05;1.15;;;0.50;;
40637;SDS011;26336;44.696;10.622;2022-09-17T12:05:44;0.70;;;0.45;;
40637;SDS011;26336;44.696;10.622;2022-09-17T12:09:00;0.40;;;0.30;;
40637;SDS011;26336;44.696;10.622;2022-09-17T12:12:25;0.30;;;0.30;;
40637;SDS011;26336;44.696;10.622;2022-09-17T12:15:33;0.88;;;0.30;;
40637;SDS011;26336;44.696;10.622;2022-09-17T12:22:09;0.90;;;0.20;;
40637;SDS011;26336;44.696;10.622;2022-09-17T12:25:14;0.63;;;0.38;;
40637;SDS011;26336;44.696;10.622;2022-09-17T12:28:20;0.45;;;0.30;;
40637;SDS011;26336;44.696;10.622;2022-09-17T12:31:36;0.40;;;0.37;;
40637;SDS011;26336;44.696;10.622;2022-09-17T12:59:35;0.65;;;0.30;;
40637;SDS011;26336;44.696;10.622;2022-09-17T13:03:06;1.58;;;0.30;;
40637;SDS011;26336;44.696;10.622;2022-09-17T13:12:46;0.25;;;0.20;;
40637;SDS011;26336;44.696;10.622;2022-09-17T13:19:40;0.10;;;0.10;;
40637;SDS011;26336;44.696;10.622;2022-09-17T13:22:55;0.30;;;0.20;;
40637;SDS011;26336;44.696;10.622;2022-09-17T13:26:01;0.20;;;0.20;;
40637;SDS011;26336;44.696;10.622;2022-09-17T13:29:07;0.32;;;0.22;;
40637;SDS011;26336;44.696;10.622;2022-09-17T13:38:39;0.20;;;0.20;;
40637;SDS011;26336;44.696;10.622;2022-09-17T13:41:44;0.75;;;0.20;;
40637;SDS011;26336;44.696;10.622;2022-09-17T13:45:01;0.52;;;0.30;;
40637;SDS011;26336;44.696;10.622;2022-09-17T13:48:08;0.38;;;0.20;;
40637;SDS011;26336;44.696;10.622;2022-09-17T13:54:36;0.70;;;0.50;;
40637;SDS011;26336;44.696;10.622;2022-09-17T13:57:45;0.50;;;0.20;;
40637;SDS011;26336;44.696;10.622;2022-09-17T14:00:56;0.38;;;0.20;;
40637;SDS011;26336;44.696;10.622;2022-09-17T14:04:03;0.95;;;0.20;;
40637;SDS011;26336;44.696;10.622;2022-09-17T14:10:28;0.22;;;0.20;;
40637;SDS011;26336;44.696;10.622;2022-09-17T14:13:40;2.45;;;0.65;;
40637;SDS011;26336;44.696;10.622;2022-09-17T14:16:47;0.63;;;0.50;;
40637;SDS011;26336;44.696;10.622;2022-09-17T14:19:52;0.57;;;0.25;;
40637;SDS011;26336;44.696;10.622;2022-09-17T14:23:01;0.63;;;0.40;;
40637;SDS011;26336;44.696;10.622;2022-09-17T14:26:05;0.40;;;0.30;;
40637;SDS011;26336;44.696;10.622;2022-09-17T14:39:07;0.30;;;0.30;;
40637;SDS011;26336;44.696;10.622;2022-09-17T14:42:18;0.75;;;0.30;;
40637;SDS011;26336;44.696;10.622;2022-09-17T14:45:27;0.60;;;0.25;;
40637;SDS011;26336;44.696;10.622;2022-09-17T14:48:34;0.30;;;0.20;;
40637;SDS011;26336;44.696;10.622;2022-09-17T14:51:41;0.75;;;0.40;;
40637;SDS011;26336;44.696;10.622;2022-09-17T14:54:45;0.60;;;0.30;;
40637;SDS011;26336;44.696;10.622;2022-09-17T14:57:51;2.08;;;0.30;;
40637;SDS011;26336;44.696;10.622;2022-09-17T15:00:56;0.70;;;0.45;;
40637;SDS011;26336;44.696;10.622;2022-09-17T15:07:17;0.43;;;0.30;;
40637;SDS011;26336;44.696;10.622;2022-09-17T15:10:24;0.73;;;0.35;;
40637;SDS011;26336;44.696;10.622;2022-09-17T15:13:30;0.40;;;0.38;;
40637;SDS011;26336;44.696;10.622;2022-09-17T15:16:37;0.50;;;0.30;;
40637;SDS011;26336;44.696;10.622;2022-09-17T15:19:42;0.20;;;0.20;;
40637;SDS011;26336;44.696;10.622;2022-09-17T15:23:07;1.08;;;0.52;;
40637;SDS011;26336;44.696;10.622;2022-09-17T15:26:20;0.38;;;0.38;;
40637;SDS011;26336;44.696;10.622;2022-09-17T15:29:29;0.68;;;0.50;;
40637;SDS011;26336;44.696;10.622;2022-09-17T15:32:36;0.35;;;0.28;;
40637;SDS011;26336;44.696;10.622;2022-09-17T15:35:41;0.20;;;0.20;;
40637;SDS011;26336;44.696;10.622;2022-09-17T15:39:28;0.38;;;0.30;;
40637;SDS011;26336;44.696;10.622;2022-09-17T15:42:34;0.70;;;0.30;;
40637;SDS011;26336;44.696;10.622;2022-09-17T15:45:37;0.70;;;0.35;;
40637;SDS011;26336;44.696;10.622;2022-09-17T15:48:44;0.55;;;0.30;;
40637;SDS011;26336;44.696;10.622;2022-09-17T15:51:48;0.65;;;0.30;;
40637;SDS011;26336;44.696;10.622;2022-09-17T15:54:53;0.68;;;0.40;;
40637;SDS011;26336;44.696;10.622;2022-09-17T15:57:58;0.43;;;0.30;;
40637;SDS011;26336;44.696;10.622;2022-09-17T16:04:20;1.02;;;0.30;;
40637;SDS011;26336;44.696;10.622;2022-09-17T16:07:27;0.40;;;0.40;;
40637;SDS011;26336;44.696;10.622;2022-09-17T16:10:32;0.40;;;0.30;;
40637;SDS011;26336;44.696;10.622;2022-09-17T16:13:36;0.40;;;0.30;;
40637;SDS011;26336;44.696;10.622;2022-09-17T16:16:40;0.45;;;0.40;;
40637;SDS011;26336;44.696;10.622;2022-09-17T16:19:44;0.50;;;0.40;;
40637;SDS011;26336;44.696;10.622;2022-09-17T16:22:48;3.80;;;0.43;;
40637;SDS011;26336;44.696;10.622;2022-09-17T16:25:53;0.43;;;0.40;;
40637;SDS011;26336;44.696;10.622;2022-09-17T16:28:58;0.50;;;0.47;;
40637;SDS011;26336;44.696;10.622;2022-09-17T16:32:07;0.52;;;0.30;;
40637;SDS011;26336;44.696;10.622;2022-09-17T16:35:15;1.80;;;0.50;;
40637;SDS011;26336;44.696;10.622;2022-09-17T16:38:21;0.88;;;0.40;;
40637;SDS011;26336;44.696;10.622;2022-09-17T16:41:27;1.95;;;0.45;;
40637;SDS011;26336;44.696;10.622;2022-09-17T16:44:31;0.77;;;0.38;;
40637;SDS011;26336;44.696;10.622;2022-09-17T16:47:36;1.83;;;0.35;;
40637;SDS011;26336;44.696;10.622;2022-09-17T16:50:42;0.52;;;0.40;;
40637;SDS011;26336;44.696;10.622;2022-09-17T16:53:46;1.55;;;0.40;;
40637;SDS011;26336;44.696;10.622;2022-09-17T16:56:52;0.75;;;0.38;;
40637;SDS011;26336;44.696;10.622;2022-09-17T16:59:59;2.42;;;0.40;;
40637;SDS011;26336;44.696;10.622;2022-09-17T17:03:03;1.63;;;0.30;;
40637;SDS011;26336;44.696;10.622;2022-09-17T17:06:17;0.93;;;0.60;;
40637;SDS011;26336;44.696;10.622;2022-09-17T17:09:22;2.10;;;0.40;;
40637;SDS011;26336;44.696;10.622;2022-09-17T17:12:26;0.50;;;0.50;;
40637;SDS011;26336;44.696;10.622;2022-09-17T17:15:31;1.08;;;0.70;;
40637;SDS011;26336;44.696;10.622;2022-09-17T17:18:35;2.97;;;0.50;;
40637;SDS011;26336;44.696;10.622;2022-09-17T17:21:39;0.80;;;0.50;;
40637;SDS011;26336;44.696;10.622;2022-09-17T17:24:42;1.80;;;0.57;;
40637;SDS011;26336;44.696;10.622;2022-09-17T17:27:46;3.25;;;0.82;;
40637;SDS011;26336;44.696;10.622;2022-09-17T17:30:51;1.40;;;0.60;;
40637;SDS011;26336;44.696;10.622;2022-09-17T17:33:55;1.35;;;0.60;;
40637;SDS011;26336;44.696;10.622;2022-09-17T17:37:00;1.83;;;0.90;;
40637;SDS011;26336;44.696;10.622;2022-09-17T17:40:04;1.33;;;0.75;;
40637;SDS011;26336;44.696;10.622;2022-09-17T17:43:12;1.38;;;0.80;;
40637;SDS011;26336;44.696;10.622;2022-09-17T17:46:16;1.23;;;0.88;;
40637;SDS011;26336;44.696;10.622;2022-09-17T17:49:20;1.48;;;0.80;;
40637;SDS011;26336;44.696;10.622;2022-09-17T17:52:24;1.50;;;0.82;;
40637;SDS011;26336;44.696;10.622;2022-09-17T17:55:28;1.17;;;0.85;;
40637;SDS011;26336;44.696;10.622;2022-09-17T17:58:32;1.50;;;0.80;;
40637;SDS011;26336;44.696;10.622;2022-09-17T18:01:36;4.07;;;0.93;;
40637;SDS011;26336;44.696;10.622;2022-09-17T18:04:40;3.97;;;1.42;;
40637;SDS011;26336;44.696;10.622;2022-09-17T18:07:44;2.05;;;1.10;;
40637;SDS011;26336;44.696;10.622;2022-09-17T18:10:55;3.38;;;1.90;;
40637;SDS011;26336;44.696;10.622;2022-09-17T18:14:02;5.60;;;3.13;;
40637;SDS011;26336;44.696;10.622;2022-09-17T18:17:06;3.47;;;1.23;;
40637;SDS011;26336;44.696;10.622;2022-09-17T18:20:10;2.55;;;1.50;;
40637;SDS011;26336;44.696;10.622;2022-09-17T18:23:14;2.15;;;1.00;;
40637;SDS011;26336;44.696;10.622;2022-09-17T18:26:19;3.53;;;1.27;;
40637;SDS011;26336;44.696;10.622;2022-09-17T18:29:27;2.05;;;0.95;;
40637;SDS011;26336;44.696;10.622;2022-09-17T18:32:32;1.95;;;1.20;;
40637;SDS011;26336;44.696;10.622;2022-09-17T18:35:35;4.05;;;1.27;;
40637;SDS011;26336;44.696;10.622;2022-09-17T18:38:40;1.88;;;1.05;;
40637;SDS011;26336;44.696;10.622;2022-09-17T18:41:44;3.10;;;1.10;;
40637;SDS011;26336;44.696;10.622;2022-09-17T18:44:48;3.33;;;1.83;;
40637;SDS011;26336;44.696;10.622;2022-09-17T18:47:52;2.88;;;1.65;;
40637;SDS011;26336;44.696;10.622;2022-09-17T18:51:01;3.17;;;1.67;;
40637;SDS011;26336;44.696;10.622;2022-09-17T18:54:05;4.35;;;1.58;;
40637;SDS011;26336;44.696;10.622;2022-09-17T18:57:09;1.98;;;1.35;;
40637;SDS011;26336;44.696;10.622;2022-09-17T19:00:14;1.40;;;1.00;;
40637;SDS011;26336;44.696;10.622;2022-09-17T19:03:21;2.00;;;1.25;;
40637;SDS011;26336;44.696;10.622;2022-09-17T19:06:25;2.85;;;1.60;;
40637;SDS011;26336;44.696;10.622;2022-09-17T19:09:30;3.75;;;1.80;;
40637;SDS011;26336;44.696;10.622;2022-09-17T19:12:34;2.72;;;1.75;;
40637;SDS011;26336;44.696;10.622;2022-09-17T19:15:38;4.10;;;1.67;;
40637;SDS011;26336;44.696;10.622;2022-09-17T19:18:43;4.35;;;1.60;;
40637;SDS011;26336;44.696;10.622;2022-09-17T19:21:48;2.35;;;1.52;;
40637;SDS011;26336;44.696;10.622;2022-09-17T19:24:53;3.42;;;1.77;;
40637;SDS011;26336;44.696;10.622;2022-09-17T19:27:57;2.95;;;1.35;;
40637;SDS011;26336;44.696;10.622;2022-09-17T19:31:05;4.00;;;1.50;;
40637;SDS011;26336;44.696;10.622;2022-09-17T19:34:11;2.00;;;1.20;;
40637;SDS011;26336;44.696;10.622;2022-09-17T19:37:15;2.67;;;1.20;;
40637;SDS011;26336;44.696;10.622;2022-09-17T19:40:20;3.65;;;1.27;;
40637;SDS011;26336;44.696;10.622;2022-09-17T19:43:30;2.42;;;1.40;;
40637;SDS011;26336;44.696;10.622;2022-09-17T19:46:35;1.70;;;1.23;;
40637;SDS011;26336;44.696;10.622;2022-09-17T19:49:41;2.53;;;0.93;;
40637;SDS011;26336;44.696;10.622;2022-09-17T19:52:48;1.50;;;0.80;;
40637;SDS011;26336;44.696;10.622;2022-09-17T19:55:52;1.42;;;1.08;;
40637;SDS011;26336;44.696;10.622;2022-09-17T19:58:56;1.50;;;0.90;;
40637;SDS011;26336;44.696;10.622;2022-09-17T20:02:00;2.33;;;0.93;;
40637;SDS011;26336;44.696;10.622;2022-09-17T20:05:04;1.33;;;1.23;;
40637;SDS011;26336;44.696;10.622;2022-09-17T20:08:09;1.15;;;0.75;;
40637;SDS011;26336;44.696;10.622;2022-09-17T20:11:14;1.40;;;1.00;;
40637;SDS011;26336;44.696;10.622;2022-09-17T20:14:19;2.28;;;0.80;;
40637;SDS011;26336;44.696;10.622;2022-09-17T20:17:23;1.90;;;0.95;;
40637;SDS011;26336;44.696;10.622;2022-09-17T20:20:27;2.25;;;0.98;;
40637;SDS011;26336;44.696;10.622;2022-09-17T20:23:32;1.25;;;0.90;;
40637;SDS011;26336;44.696;10.622;2022-09-17T20:26:36;2.50;;;1.15;;
40637;SDS011;26336;44.696;10.622;2022-09-17T20:29:40;1.88;;;1.00;;
40637;SDS011;26336;44.696;10.622;2022-09-17T20:32:44;2.92;;;1.45;;
40637;SDS011;26336;44.696;10.622;2022-09-17T20:35:48;2.75;;;1.40;;
40637;SDS011;26336;44.696;10.622;2022-09-17T20:38:53;1.70;;;1.08;;
40637;SDS011;26336;44.696;10.622;2022-09-17T20:41:57;1.95;;;1.00;;
40637;SDS011;26336;44.696;10.622;2022-09-17T20:45:01;2.88;;;1.40;;
40637;SDS011;26336;44.696;10.622;2022-09-17T20:48:06;1.55;;;1.20;;
40637;SDS011;26336;44.696;10.622;2022-09-17T20:51:11;1.05;;;0.90;;
40637;SDS011;26336;44.696;10.622;2022-09-17T20:54:20;4.18;;;1.05;;
40637;SDS011;26336;44.696;10.622;2022-09-17T20:57:24;1.92;;;1.08;;
40637;SDS011;26336;44.696;10.622;2022-09-17T21:00:29;1.30;;;0.90;;
40637;SDS011;26336;44.696;10.622;2022-09-17T21:03:33;1.20;;;0.95;;
40637;SDS011;26336;44.696;10.622;2022-09-17T21:06:38;4.43;;;1.20;;